HISTORICAL SENSOR DATA

Sensor Data Report

DB LIVE
CURRENT TIME--:--:--
DEVICE NETWORK Gateway Status
13 ESP · realtime ~1s · history 60s
Weather WS-MOD-01
WARNING
Actuator ACT-MOD-01
OFFLINE
Mainboard L3 MB-L3-01
OFFLINE
Mainboard L5 MB-L5-01
WARNING
Remote AC AC-REMOTE-01
OFFLINE
PZEM L3-01 PWR-L3-01
OFFLINE
PZEM L3-02 PWR-L3-02
OFFLINE
PZEM L3-03 PWR-L3-03
OFFLINE
PZEM L3-04 PWR-L3-04
OFFLINE
PZEM L5-01 PWR-L5-01
WARNING
PZEM L5-02 PWR-L5-02
OFFLINE
PZEM L5-03 PWR-L5-03
OFFLINE
PZEM L5-04 PWR-L5-04
OFFLINE
REPORT FILTER

Periode & Sensor

DATABASE HISTORY
RESET
QUICK RANGE Hari ini 7 hari 30 hari
PERIODE08 Aug 2026sampai 06 Sep 2026
TOTAL DATA43,544sensor readings
MINIMUM-0.50sesuai filter
AVERAGE86.63sesuai filter
MAXIMUM32,564.20sesuai filter
REPORT RESULT

Data Sensor

08/08/2026 — 06/09/2026 EXPORT CSV
NOTANGGALWAKTUDEVICECHANNELSENSORVALUEUNIT
2001 06/09/2026 11:55:00 MB-L5-01Mainboard Lantai 5 L5-LUX-04 Illuminance / LUX 4 0.00 lux
2002 06/09/2026 11:55:00 MB-L5-01Mainboard Lantai 5 L5-LUX-01 Illuminance / LUX 1 504.40 lux
2003 06/09/2026 11:55:00 WS-MOD-01Weather Station Module WS-PRES Tekanan Udara 910.00 hPa
2004 06/09/2026 11:55:00 MB-L5-01Mainboard Lantai 5 L5-RAD-02 Radiation 2 4.00 W/m²
2005 06/09/2026 11:55:00 MB-L5-01Mainboard Lantai 5 L5-RAD-01 Radiation 1 4.00 W/m²
2006 06/09/2026 11:55:00 MB-L5-01Mainboard Lantai 5 L5-ST-02 Surface Temperature 2 31.90 °C
2007 06/09/2026 11:55:00 MB-L5-01Mainboard Lantai 5 L5-AI-02 Analog Input 2 3.05 V
2008 06/09/2026 11:55:00 MB-L5-01Mainboard Lantai 5 L5-LUX-05 Illuminance / LUX 5 2,378.30 lux
2009 06/09/2026 11:55:00 MB-L5-01Mainboard Lantai 5 L5-BGT-02 Black Globe Temperature 2 28.20 °C
2010 06/09/2026 11:55:00 WS-MOD-01Weather Station Module WS-DIR Arah Angin 107.70 °
2011 06/09/2026 11:55:00 MB-L5-01Mainboard Lantai 5 L5-HFT-02 Heat Flow Temperature 2 29.10 °C
2012 06/09/2026 11:55:00 MB-L5-01Mainboard Lantai 5 L5-AI-04 Analog Input 4 3.05 V
2013 06/09/2026 11:55:00 MB-L5-01Mainboard Lantai 5 L5-SHT-01-RH SHT20 1 Humidity 35.30 %RH
2014 06/09/2026 11:55:00 MB-L5-01Mainboard Lantai 5 L5-SHT-01-T SHT20 1 Temperature 30.10 °C
2015 06/09/2026 11:55:00 MB-L5-01Mainboard Lantai 5 L5-SHT-02-T SHT20 2 Temperature 29.50 °C
2016 06/09/2026 11:54:00 MB-L5-01Mainboard Lantai 5 L5-AI-03 Analog Input 3 3.05 V
2017 06/09/2026 11:54:00 WS-MOD-01Weather Station Module WS-TEMP Suhu Udara 27.60 °C
2018 06/09/2026 11:54:00 MB-L5-01Mainboard Lantai 5 L5-HFT-01 Heat Flow Temperature 1 29.70 °C
2019 06/09/2026 11:54:00 MB-L5-01Mainboard Lantai 5 L5-LUX-03 Illuminance / LUX 3 963.60 lux
2020 06/09/2026 11:54:00 MB-L5-01Mainboard Lantai 5 L5-LUX-02 Illuminance / LUX 2 2,648.30 lux
2021 06/09/2026 11:54:00 WS-MOD-01Weather Station Module WS-RH Kelembapan Udara 41.70 %RH
2022 06/09/2026 11:54:00 MB-L5-01Mainboard Lantai 5 L5-BGT-03 Black Globe Temperature 3 28.50 °C
2023 06/09/2026 11:54:00 MB-L5-01Mainboard Lantai 5 L5-LUX-06 Illuminance / LUX 6 827.50 lux
2024 06/09/2026 11:54:00 MB-L5-01Mainboard Lantai 5 L5-AI-05 Analog Input 5 3.05 V
2025 06/09/2026 11:54:00 MB-L5-01Mainboard Lantai 5 L5-LUX-04 Illuminance / LUX 4 545.10 lux
2026 06/09/2026 11:54:00 MB-L5-01Mainboard Lantai 5 L5-LUX-01 Illuminance / LUX 1 505.70 lux
2027 06/09/2026 11:54:00 WS-MOD-01Weather Station Module WS-PRES Tekanan Udara 910.00 hPa
2028 06/09/2026 11:54:00 MB-L5-01Mainboard Lantai 5 L5-RAD-02 Radiation 2 4.00 W/m²
2029 06/09/2026 11:54:00 MB-L5-01Mainboard Lantai 5 L5-RAD-01 Radiation 1 4.00 W/m²
2030 06/09/2026 11:54:00 MB-L5-01Mainboard Lantai 5 L5-ST-02 Surface Temperature 2 31.80 °C
2031 06/09/2026 11:54:00 MB-L5-01Mainboard Lantai 5 L5-AI-02 Analog Input 2 3.05 V
2032 06/09/2026 11:54:00 MB-L5-01Mainboard Lantai 5 L5-LUX-05 Illuminance / LUX 5 2,355.20 lux
2033 06/09/2026 11:54:00 MB-L5-01Mainboard Lantai 5 L5-BGT-02 Black Globe Temperature 2 28.20 °C
2034 06/09/2026 11:54:00 WS-MOD-01Weather Station Module WS-DIR Arah Angin 151.20 °
2035 06/09/2026 11:54:00 MB-L5-01Mainboard Lantai 5 L5-HFT-02 Heat Flow Temperature 2 29.00 °C
2036 06/09/2026 11:54:00 MB-L5-01Mainboard Lantai 5 L5-AI-04 Analog Input 4 3.05 V
2037 06/09/2026 11:54:00 MB-L5-01Mainboard Lantai 5 L5-SHT-01-RH SHT20 1 Humidity 35.70 %RH
2038 06/09/2026 11:54:00 MB-L5-01Mainboard Lantai 5 L5-SHT-01-T SHT20 1 Temperature 29.90 °C
2039 06/09/2026 11:54:00 MB-L5-01Mainboard Lantai 5 L5-SHT-02-T SHT20 2 Temperature 29.30 °C
2040 06/09/2026 11:54:00 MB-L5-01Mainboard Lantai 5 L5-AI-06 Analog Input 6 3.05 V
2041 06/09/2026 11:54:00 MB-L5-01Mainboard Lantai 5 L5-AI-01 Analog Input 1 3.05 V
2042 06/09/2026 11:54:00 WS-MOD-01Weather Station Module WS-WIND Kecepatan Angin 3.59 m/s
2043 06/09/2026 11:54:00 MB-L5-01Mainboard Lantai 5 L5-ST-01 Surface Temperature 1 29.00 °C
2044 06/09/2026 11:54:00 MB-L5-01Mainboard Lantai 5 L5-SHT-02-RH SHT20 2 Humidity 36.30 %RH
2045 06/09/2026 11:54:00 MB-L5-01Mainboard Lantai 5 L5-SHT-03-T SHT20 3 Temperature 29.40 °C
2046 06/09/2026 11:54:00 MB-L5-01Mainboard Lantai 5 L5-BGT-01 Black Globe Temperature 1 28.30 °C
2047 06/09/2026 11:54:00 MB-L5-01Mainboard Lantai 5 L5-SHT-03-RH SHT20 3 Humidity 35.90 %RH
2048 06/09/2026 11:53:00 MB-L5-01Mainboard Lantai 5 L5-LUX-04 Illuminance / LUX 4 543.40 lux
2049 06/09/2026 11:53:00 MB-L5-01Mainboard Lantai 5 L5-LUX-01 Illuminance / LUX 1 546.50 lux
2050 06/09/2026 11:53:00 WS-MOD-01Weather Station Module WS-PRES Tekanan Udara 910.00 hPa
2051 06/09/2026 11:53:00 MB-L5-01Mainboard Lantai 5 L5-RAD-02 Radiation 2 4.00 W/m²
2052 06/09/2026 11:53:00 MB-L5-01Mainboard Lantai 5 L5-RAD-01 Radiation 1 4.00 W/m²
2053 06/09/2026 11:53:00 MB-L5-01Mainboard Lantai 5 L5-ST-02 Surface Temperature 2 31.60 °C
2054 06/09/2026 11:53:00 MB-L5-01Mainboard Lantai 5 L5-AI-02 Analog Input 2 3.05 V
2055 06/09/2026 11:53:00 MB-L5-01Mainboard Lantai 5 L5-LUX-05 Illuminance / LUX 5 2,344.30 lux
2056 06/09/2026 11:53:00 MB-L5-01Mainboard Lantai 5 L5-BGT-02 Black Globe Temperature 2 28.10 °C
2057 06/09/2026 11:53:00 WS-MOD-01Weather Station Module WS-DIR Arah Angin 107.30 °
2058 06/09/2026 11:53:00 MB-L5-01Mainboard Lantai 5 L5-HFT-02 Heat Flow Temperature 2 28.60 °C
2059 06/09/2026 11:53:00 MB-L5-01Mainboard Lantai 5 L5-AI-04 Analog Input 4 3.05 V
2060 06/09/2026 11:53:00 MB-L5-01Mainboard Lantai 5 L5-SHT-01-RH SHT20 1 Humidity 36.30 %RH
2061 06/09/2026 11:53:00 MB-L5-01Mainboard Lantai 5 L5-SHT-01-T SHT20 1 Temperature 29.60 °C
2062 06/09/2026 11:53:00 MB-L5-01Mainboard Lantai 5 L5-SHT-02-T SHT20 2 Temperature 29.10 °C
2063 06/09/2026 11:53:00 MB-L5-01Mainboard Lantai 5 L5-AI-06 Analog Input 6 3.05 V
2064 06/09/2026 11:53:00 MB-L5-01Mainboard Lantai 5 L5-AI-01 Analog Input 1 3.05 V
2065 06/09/2026 11:53:00 WS-MOD-01Weather Station Module WS-WIND Kecepatan Angin 3.37 m/s
2066 06/09/2026 11:53:00 MB-L5-01Mainboard Lantai 5 L5-ST-01 Surface Temperature 1 29.00 °C
2067 06/09/2026 11:53:00 MB-L5-01Mainboard Lantai 5 L5-SHT-02-RH SHT20 2 Humidity 36.80 %RH
2068 06/09/2026 11:53:00 MB-L5-01Mainboard Lantai 5 L5-SHT-03-T SHT20 3 Temperature 29.20 °C
2069 06/09/2026 11:53:00 MB-L5-01Mainboard Lantai 5 L5-BGT-01 Black Globe Temperature 1 28.30 °C
2070 06/09/2026 11:53:00 MB-L5-01Mainboard Lantai 5 L5-SHT-03-RH SHT20 3 Humidity 36.50 %RH
2071 06/09/2026 11:53:00 MB-L5-01Mainboard Lantai 5 L5-AI-03 Analog Input 3 3.05 V
2072 06/09/2026 11:53:00 WS-MOD-01Weather Station Module WS-TEMP Suhu Udara 27.80 °C
2073 06/09/2026 11:53:00 MB-L5-01Mainboard Lantai 5 L5-HFT-01 Heat Flow Temperature 1 29.60 °C
2074 06/09/2026 11:53:00 MB-L5-01Mainboard Lantai 5 L5-LUX-03 Illuminance / LUX 3 961.50 lux
2075 06/09/2026 11:53:00 MB-L5-01Mainboard Lantai 5 L5-LUX-02 Illuminance / LUX 2 2,644.00 lux
2076 06/09/2026 11:53:00 WS-MOD-01Weather Station Module WS-RH Kelembapan Udara 40.80 %RH
2077 06/09/2026 11:53:00 MB-L5-01Mainboard Lantai 5 L5-BGT-03 Black Globe Temperature 3 28.30 °C
2078 06/09/2026 11:53:00 MB-L5-01Mainboard Lantai 5 L5-LUX-06 Illuminance / LUX 6 826.80 lux
2079 06/09/2026 11:53:00 MB-L5-01Mainboard Lantai 5 L5-AI-05 Analog Input 5 3.05 V
2080 06/09/2026 11:52:00 MB-L5-01Mainboard Lantai 5 L5-LUX-05 Illuminance / LUX 5 2,339.20 lux
2081 06/09/2026 11:52:00 MB-L5-01Mainboard Lantai 5 L5-BGT-02 Black Globe Temperature 2 27.90 °C
2082 06/09/2026 11:52:00 WS-MOD-01Weather Station Module WS-DIR Arah Angin 348.70 °
2083 06/09/2026 11:52:00 MB-L5-01Mainboard Lantai 5 L5-HFT-02 Heat Flow Temperature 2 28.40 °C
2084 06/09/2026 11:52:00 MB-L5-01Mainboard Lantai 5 L5-AI-04 Analog Input 4 3.05 V
2085 06/09/2026 11:52:00 MB-L5-01Mainboard Lantai 5 L5-SHT-01-RH SHT20 1 Humidity 36.80 %RH
2086 06/09/2026 11:52:00 MB-L5-01Mainboard Lantai 5 L5-SHT-01-T SHT20 1 Temperature 29.40 °C
2087 06/09/2026 11:52:00 MB-L5-01Mainboard Lantai 5 L5-SHT-02-T SHT20 2 Temperature 28.80 °C
2088 06/09/2026 11:52:00 MB-L5-01Mainboard Lantai 5 L5-AI-06 Analog Input 6 3.05 V
2089 06/09/2026 11:52:00 MB-L5-01Mainboard Lantai 5 L5-AI-01 Analog Input 1 3.05 V
2090 06/09/2026 11:52:00 WS-MOD-01Weather Station Module WS-WIND Kecepatan Angin 3.59 m/s
2091 06/09/2026 11:52:00 MB-L5-01Mainboard Lantai 5 L5-ST-01 Surface Temperature 1 28.90 °C
2092 06/09/2026 11:52:00 MB-L5-01Mainboard Lantai 5 L5-SHT-02-RH SHT20 2 Humidity 37.40 %RH
2093 06/09/2026 11:52:00 MB-L5-01Mainboard Lantai 5 L5-SHT-03-T SHT20 3 Temperature 28.90 °C
2094 06/09/2026 11:52:00 MB-L5-01Mainboard Lantai 5 L5-BGT-01 Black Globe Temperature 1 28.20 °C
2095 06/09/2026 11:52:00 MB-L5-01Mainboard Lantai 5 L5-SHT-03-RH SHT20 3 Humidity 36.90 %RH
2096 06/09/2026 11:52:00 MB-L5-01Mainboard Lantai 5 L5-AI-03 Analog Input 3 3.05 V
2097 06/09/2026 11:52:00 WS-MOD-01Weather Station Module WS-TEMP Suhu Udara 29.30 °C
2098 06/09/2026 11:52:00 MB-L5-01Mainboard Lantai 5 L5-HFT-01 Heat Flow Temperature 1 29.70 °C
2099 06/09/2026 11:52:00 MB-L5-01Mainboard Lantai 5 L5-LUX-03 Illuminance / LUX 3 961.80 lux
2100 06/09/2026 11:52:00 MB-L5-01Mainboard Lantai 5 L5-LUX-02 Illuminance / LUX 2 2,645.50 lux
Menampilkan maksimal 100 data per halaman